首页
METAR-TAF:

METAR-TAF

机场 :

Crestview, 佛罗里达州, 美国

纬度: 30-46-20N, 经度: 086-31-12W, 海拔: 65米

当前天气观测

该预报发布于19分钟前的21:53 UTC
风速4节,风向西北
温度 21°C
湿度 88%
气压 1019 hPa
能見度: 4.8公里
少量云层高于6500英尺
散云层高于8500英尺
阴天层高于11000英尺
雨, 轻雾

METAR: KCEW 112153Z AUTO 32004KT 3SM RA BR FEW065 SCT085 OVC110 21/19 A3008 RMK AO2 PK WND 24028/2057 LTG DSNT ALQDS TSE34 SLP182 P0100 T02060189

时间: 17:12 (22:12 UTC)


TAF: 丢失

超过4000个机场的气象观测和天气预报(METAR&TAF报告)。

可查询的气象台以黄色和红色小点在地图上表示。

将鼠标移到小点上方,可查看气象台名称。

然后点击查看天气观测和预报。

如需切换地图:点击带黑十字的绿色按钮放大地图;点击带横线的绿色按钮缩小地图;或者点击绿色箭头查看邻近地区的地图。


METAR-TAF: